Aviation Digital Data Service (ADDS)

Output produced by METARs form (0639 UTC 24 March 2019)
found at http://www.aviationweather.gov/metar/data/
 
KALB 240551Z 29004KT 10SM FEW250 01/M09 A3012 RMK AO2 SLP203 T00111089 10011 21017 53007
KALB 240535Z 2406/2506 28005KT P6SM SKC 
     FM241200 23008KT P6SM SCT250 
     FM241500 25012G20KT P6SM BKN250 
     FM242300 26010KT P6SM SCT050 SCT120 BKN250 
     FM250300 28005KT P6SM BKN050 BKN100
       
KGVQ 240556Z AUTO 25013KT 10SM CLR 00/M08 A3015 RMK AO2 SLP239 T00001078 10000 21017 58003 FZRANO
KBGM 240553Z AUTO 28009KT 10SM CLR M03/M11 A3011 RMK AO2 SLP215 T10281106 11011 21033 51002
KBGM 240524Z 2406/2506 26006KT P6SM SKC WS020/25030KT 
     FM241200 26010G20KT P6SM SCT250 
     FM250400 29007KT P6SM OVC050
       
KBUF 240554Z 21009KT 10SM CLR M01/M09 A3018 RMK AO2 SLP227 T10061094 11006 21017 58011
KBUF 240524Z 2406/2506 23010KT P6SM SKC 
     FM241400 23014G26KT P6SM SCT250 
     FM241800 24016G30KT P6SM BKN250 
     FM242300 25010KT P6SM SCT100 OVC250 
     FM250300 34006KT P6SM SCT025 BKN040
       
KN03 240635Z AUTO 00000KT 10SM CLR M06/M07 A3015 RMK AO2
KDSV 240554Z AUTO 00000KT 10SM CLR M03/M08 A3020 RMK AO2 SLP244 T10331078 10017 21056 50001
KDKK 240553Z AUTO 20009KT 10SM CLR 00/M09 A3020 RMK AO2 SLP235 T00001089 10000 21017 58011
KHTO 240615Z AUTO 31005KT 10SM CLR 02/M09 A3010 RMK AO2 T00151090
KELM 240553Z AUTO 00000KT 10SM CLR M06/M09 A3017 RMK AO2 SLP227 T10561089 10017 21061 53003 $
KELM 240524Z 2406/2506 25003KT P6SM SKC WS020/27030KT 
     FM241200 26010G20KT P6SM SCT250 
     FM250500 32004KT P6SM OVC050
       
KFRG 240553Z AUTO 31006G15KT 10SM CLR 03/M11 A3014 RMK AO2 SLP205 T00331111 10056 20033 53012
KFZY 240554Z AUTO 26007KT 10SM CLR M01/M08 A3016 RMK AO2 SLP219 T10111083 10011 21017 53005
KGFL 240553Z AUTO 18006KT 10SM CLR M03/M09 A3007 RMK AO2 SLP191 T10281089 10011 21033 53005
KGFL 240535Z 2406/2506 20005KT P6SM SKC 
     FM241500 22010KT P6SM SCT250 
     FM241700 23012G20KT P6SM BKN250 
     FM242200 24008KT P6SM SCT050 SCT120 BKN250 
     FM250200 26005KT P6SM BKN050 BKN100
       
KISP 240556Z AUTO 30012KT 10SM CLR 02/M09 A3012 RMK AO2 SLP201 T00221094 10056 20022 53010
KISP 240539Z 2406/2506 29008KT P6SM SKC 
     FM241500 27010KT P6SM SKC 
     FM241900 24013KT P6SM SCT180 
     FM242200 23011KT P6SM SCT150 BKN200
       
KITH 240556Z AUTO 00000KT 10SM CLR M07/M08 A3016 RMK AO2 SLP228 T10721083 11011 21072 51002
KITH 240524Z 2406/2506 26005KT P6SM SKC WS020/26030KT 
     FM241200 29010KT P6SM SCT250 
     FM250500 31006KT P6SM OVC050
       
KJHW 240556Z AUTO 18004KT 10SM CLR M05/M09 A3019 RMK AO2 SLP249 T10501094 11022 21056 57007 FZRANO
KJHW 240524Z 2406/2506 22006KT P6SM SKC WS020/28035KT 
     FM241200 22008KT P6SM SCT250 
     FM241500 25012G18KT P6SM BKN250 
     FM242200 26008KT P6SM BKN100 
     FM250400 32006KT P6SM BKN050
       
KNY0 240616Z AUTO 32011G21KT 10SM CLR M03/M08 A3009 RMK AO2
KMSS 240553Z AUTO 22010G19KT 10SM CLR M02/M09 A3005 RMK AO2 SLP181 T10171094 11006 21039 50006 $
KMSS 240538Z 2406/2506 23011KT P6SM SKC 
     FM241700 28009KT P6SM OVC035 
     FM241900 32008KT P6SM VCSH OVC028 
     FM250300 31005KT P6SM SCT100
       
KMTP 240554Z AUTO 31010G21KT 03/M09 A3009 RMK AO1 SLP190 T00281089 10056 20028 51019
KMGJ 240554Z AUTO 30009KT 10SM CLR 01/M10 A3012 RMK AO2 SLP202 T00111100 10028 20011 53007
KSWF 240545Z 29015KT 10SM SKC 01/M08 A3012
KSWF 240539Z 2406/2512 29009KT P6SM SKC 
     FM241100 28006KT P6SM SKC 
     FM241700 26012G19KT P6SM SCT200 
     FM242200 26012KT P6SM FEW120 BKN200 
     FM250000 27007KT P6SM FEW150 BKN200 
     FM250300 27004KT P6SM BKN080 BKN120 
     FM251000 32004KT P6SM BKN080 OVC120 AMD NOT SKED
       
KJFK 240551Z 30011G21KT 10SM CLR 04/M12 A3016 RMK AO2 SLP212 T00441117 10072 20044 53010
KJFK 240539Z 2406/2512 29011KT P6SM SKC 
     FM241200 28010KT P6SM SKC 
     FM241700 23014G21KT P6SM BKN200 
     FM242200 22013KT P6SM BKN150 
     FM250200 23009KT P6SM BKN100 
     FM250900 27005KT P6SM OVC080 
     FM251100 31006KT P6SM OVC060
       
KLGA 240551Z 30010KT 10SM CLR 05/M11 A3015 RMK AO2 SLP209 T00501111 10067 20050 53008
KLGA 240539Z 2406/2512 29010KT P6SM SKC 
     FM241200 28009KT P6SM SKC 
     FM241700 24012G19KT P6SM BKN200 
     FM242200 23011KT P6SM BKN150 
     FM250200 22008KT P6SM BKN100 
     FM250900 27004KT P6SM OVC080 
     FM251100 31005KT P6SM OVC070
       
KIAG 240553Z AUTO 23008KT 10SM CLR M02/M06 A3017 RMK AO2 SLP232 T10221061 11006 21022 58009 $
KIAG 240524Z 2406/2506 23012KT P6SM SKC 
     FM241400 22012G24KT P6SM SCT250 
     FM241700 23015G27KT P6SM BKN250 
     FM242300 26008KT P6SM SCT100 OVC250 
     FM250300 34010KT P6SM BKN040
       
KOGS 240615Z AUTO 21009KT 10SM FEW030 BKN041 OVC048 M02/M09 A3005 RMK AO2
KOLE 240635Z AUTO 29005KT 10SM CLR M02/M11 A3014 RMK AO2
KPEO 240553Z AUTO 18009KT 10SM CLR M01/M08 A3015 RMK AO2 SLP220 T10061083 10011 21011 50002
KPBG 240553Z AUTO 24007G14KT 200V280 10SM CLR 00/M11 A3001 RMK AO2 SLP164 T00001106 10017 21006 51012
KPBG 240538Z 2406/2506 23008G16KT P6SM SKC 
     FM241800 33007KT P6SM BKN045 
     FM242200 35006KT P6SM VCSH OVC026 
     FM250400 34005KT P6SM SCT035 SCT060
       
KPTD 240615Z AUTO 21010KT 10SM FEW032 SCT041 BKN050 M03/M10 A3006 RMK AO2
KPOU 240553Z AUTO 00000KT 10SM CLR M03/M08 A3012 RMK AO2 SLP197 T10281083 10033 21028 53006
KPOU 240535Z 2406/2506 VRB03KT P6SM SKC 
     FM241500 26006KT P6SM SCT250 
     FM241800 24010G16KT P6SM BKN250 
     FM242200 25008KT P6SM SCT120 BKN250 
     FM250200 VRB03KT P6SM BKN100
       
KROC 240554Z 25011KT 10SM FEW200 00/M07 A3016 RMK AO2 SLP224 T00001072 10011 21006 58001
KROC 240524Z 2406/2506 25010KT P6SM SKC WS015/28040KT 
     FM241400 24012G20KT P6SM SCT250 
     FM241800 25014G24KT P6SM FEW120 BKN250 
     FM242200 26010KT P6SM SCT100 OVC250 
     FM250200 35008KT P6SM BKN050 
     FM250400 01008KT P6SM VCSH SCT015 BKN025
       
KRME 240553Z AUTO 33005KT 10SM CLR M03/M08 A3016 RMK AO2 SLP219 T10331078 11011 21056 53008
KRME 240524Z 2406/2506 28007KT P6SM SKC WS020/28030KT 
     FM241200 28007KT P6SM SCT250 
     FM250300 30008KT P6SM OVC040
       
KSLK 240551Z AUTO 24007KT 10SM CLR M07/M11 A2998 RMK AO2 SLP178 T10671111 11050 21106 51004 $
KSLK 240538Z 2406/2506 23006KT P6SM SKC WS020/27035KT 
     FM241400 24009G16KT P6SM SKC 
     FM241800 26006KT P6SM OVC035 
     FM242100 31005KT 3SM -SN BR SCT015 OVC025 
     FM250400 VRB03KT P6SM VCSH SCT045 BKN070
       
KSCH 240045Z 28013G20KT 10SM CLR M01/M09 A3008 RMK LAST
KHWV 240556Z AUTO 31006KT 10SM CLR 02/M10 A3012 RMK AO2 SLP199 T00171100 10056 20017 51009
K6B9 240635Z AUTO 25005KT 10SM CLR M01/M07 A3015 RMK AO2
KSYR 240554Z 25006KT 10SM CLR M03/M07 A3017 RMK AO2 SLP218 4/002 T10281072 11006 21028 53007 $
KSYR 240524Z 2406/2506 26008KT P6SM SKC WS020/28030KT 
     FM241200 25010G20KT P6SM SCT250 
     FM250400 30008KT P6SM OVC050
       
KART 240556Z AUTO 22012KT 10SM CLR 00/M02 A3012 RMK AO2 SLP204 T00001022 10000 21011 51005 $
KART 240524Z 2406/2506 22010KT P6SM SKC WS020/28040KT 
     FM241000 23010KT P6SM SKC 
     FM241400 23014G22KT P6SM SCT250 
     FM242100 25008KT P6SM SCT040 BKN080 
     FM250000 02008KT P6SM VCSH SCT025 BKN040 
     FM250400 01008KT P6SM BKN250
       
KELZ 240556Z AUTO 27008KT 10SM CLR M03/M12 A3015 RMK AO2 SLP235 T10281117 11017 21033 58002 $
KFOK 240553Z AUTO 30009KT 10SM CLR 02/M11 A3013 RMK AO2 SLP202 T00171106 10056 20017 52014
KHPN 240556Z 29011G16KT 10SM CLR 02/M11 A3012 RMK AO2 SLP204 T00171111 10039 20017 53007
KHPN 240539Z 2406/2506 30010KT P6SM SKC 
     FM241500 28009KT P6SM SKC 
     FM241700 27010G18KT P6SM BKN200 
     FM242200 26007KT P6SM BKN150 AMD NOT SKED
       
KSDC 240635Z AUTO 25008G14KT 10SM CLR 00/M07 A3016 RMK AO2